createdAt,value
2023-11-24T00:04:36.814Z,100837.69
2023-11-24T00:09:38.844Z,100841.03
2023-11-24T00:14:41.003Z,100858.16
2023-11-24T00:19:43.191Z,100864.19
2023-11-24T00:24:45.320Z,100864.91
2023-11-24T00:29:47.887Z,100858.75
2023-11-24T00:34:50.187Z,100869.56
2023-11-24T00:39:52.201Z,100859.75
2023-11-24T00:44:54.469Z,100874.72
2023-11-24T00:49:56.616Z,100874.06
2023-11-24T00:54:58.998Z,100885.50
2023-11-24T01:00:01.992Z,100889.91
2023-11-24T01:05:04.846Z,100882.91
2023-11-24T01:10:09.239Z,100874.06
2023-11-24T01:15:11.576Z,100874.84
2023-11-24T01:20:13.775Z,100891.63
2023-11-24T01:25:16.002Z,100880.22
2023-11-24T01:30:18.088Z,100872.47
2023-11-24T01:35:20.470Z,100874.00
2023-11-24T01:40:22.452Z,100860.78
2023-11-24T01:45:25.398Z,100848.53
2023-11-24T01:50:28.269Z,100828.97
2023-11-24T01:55:30.524Z,100838.00
2023-11-24T02:00:34.891Z,100828.19
2023-11-24T02:05:38.505Z,100849.34
2023-11-24T02:10:40.533Z,100845.75
2023-11-24T02:15:42.647Z,100852.09
2023-11-24T02:20:44.737Z,100852.97
2023-11-24T02:25:46.870Z,100854.69
2023-11-24T02:30:49.107Z,100850.25
2023-11-24T02:35:51.217Z,100846.69
2023-11-24T02:40:53.316Z,100838.00
2023-11-24T02:45:55.621Z,100826.44
2023-11-24T02:50:57.878Z,100825.53
2023-11-24T02:56:00.110Z,100829.88
2023-11-24T03:01:02.868Z,100816.78
2023-11-24T03:06:08.159Z,100829.97
2023-11-24T03:11:10.294Z,100823.78
2023-11-24T03:16:12.471Z,100810.81
2023-11-24T03:21:14.837Z,100815.13
2023-11-24T03:26:16.967Z,100801.63
2023-11-24T03:31:19.022Z,100793.78
2023-11-24T03:36:21.015Z,100790.22
2023-11-24T03:41:23.690Z,100788.47
2023-11-24T03:46:26.279Z,100788.63
2023-11-24T03:51:28.571Z,100788.63
2023-11-24T03:56:30.610Z,100785.69
2023-11-24T04:01:32.855Z,100776.94
2023-11-24T04:06:35.109Z,100768.13
2023-11-24T04:11:37.470Z,100768.84
2023-11-24T04:16:39.534Z,100758.19
2023-11-24T04:21:42.234Z,100755.66
2023-11-24T04:26:45.036Z,100756.66
2023-11-24T04:31:47.153Z,100739.09
2023-11-24T04:36:49.383Z,100740.75
2023-11-24T04:41:51.564Z,100732.59
2023-11-24T04:46:53.722Z,100742.28
2023-11-24T04:51:55.849Z,100735.31
2023-11-24T04:56:58.284Z,100726.56
2023-11-24T05:02:00.457Z,100722.97
2023-11-24T05:07:02.696Z,100709.66
2023-11-24T05:12:05.458Z,100709.66
2023-11-24T05:17:08.046Z,100709.66
2023-11-24T05:22:10.462Z,100706.16
2023-11-24T05:27:12.561Z,100696.69
2023-11-24T05:32:14.661Z,100692.16
2023-11-24T05:37:16.682Z,100679.84
2023-11-24T05:42:18.768Z,100697.25
2023-11-24T05:47:21.870Z,100694.56
2023-11-24T05:52:23.885Z,100693.09
2023-11-24T05:57:26.306Z,100704.41
2023-11-24T06:02:28.396Z,100693.88
2023-11-24T06:07:30.609Z,100688.44
2023-11-24T06:12:32.603Z,100686.72
2023-11-24T06:17:35.016Z,100694.66
2023-11-24T06:22:37.114Z,100682.22
2023-11-24T06:27:39.473Z,100686.81
2023-11-24T06:32:41.692Z,100685.00
2023-11-24T06:37:44.604Z,100682.38
2023-11-24T06:42:47.153Z,100666.50
2023-11-24T06:47:49.286Z,100671.69
2023-11-24T06:52:51.437Z,100685.88
2023-11-24T06:57:53.417Z,100679.78
2023-11-24T07:02:55.765Z,100690.31
2023-11-24T07:07:57.886Z,100683.94
2023-11-24T07:13:00.667Z,100687.72
2023-11-24T07:18:02.748Z,100680.63
2023-11-24T07:23:04.784Z,100691.09
2023-11-24T07:28:08.186Z,100690.25
2023-11-24T07:33:12.183Z,100688.56
2023-11-24T07:38:15.283Z,100680.78
2023-11-24T07:43:17.369Z,100672.59
2023-11-24T07:48:19.721Z,100660.47
2023-11-24T07:53:22.383Z,100663.91
2023-11-24T07:58:24.864Z,100649.13
2023-11-24T08:03:28.973Z,100633.69
2023-11-24T08:08:30.909Z,100627.81
2023-11-24T08:13:32.883Z,100628.63
2023-11-24T08:18:37.167Z,100618.88
2023-11-24T08:23:39.354Z,100622.47
2023-11-24T08:28:44.375Z,100628.56
2023-11-24T08:33:47.358Z,100639.72
2023-11-24T08:38:49.362Z,100618.38
2023-11-24T08:43:51.642Z,100608.84
2023-11-24T08:48:54.189Z,100612.28
2023-11-24T08:53:56.339Z,100616.03
2023-11-24T08:58:58.327Z,100607.19
2023-11-24T09:04:00.657Z,100605.41
2023-11-24T09:09:02.698Z,100602.75
2023-11-24T09:14:06.222Z,100595.00
2023-11-24T09:19:08.523Z,100582.53
2023-11-24T09:24:12.214Z,100582.25
2023-11-24T09:29:14.318Z,100577.72
2023-11-24T09:34:16.409Z,100575.03
2023-11-24T09:49:51.710Z,100570.50
2023-11-24T09:54:59.344Z,100577.94
2023-11-24T10:00:02.190Z,100590.06
2023-11-24T10:05:05.028Z,100551.16
2023-11-24T10:10:08.115Z,100567.84
2023-11-24T10:15:10.641Z,100586.25
2023-11-24T10:20:13.056Z,100572.31
2023-11-24T10:25:16.503Z,100564.19
2023-11-24T10:30:19.725Z,100560.34
2023-11-24T10:35:21.858Z,100558.97
2023-11-24T10:40:25.014Z,100552.16
2023-11-24T10:45:32.268Z,100559.34
2023-11-24T10:50:40.195Z,100546.88
2023-11-24T10:55:43.988Z,100554.94
2023-11-24T11:00:46.530Z,100554.16
2023-11-24T11:06:12.032Z,100534.03
2023-11-24T11:11:27.121Z,100516.13
2023-11-24T11:16:29.489Z,100524.06
2023-11-24T11:21:31.494Z,100515.09
2023-11-24T11:26:50.477Z,100522.34
2023-11-24T11:31:53.123Z,100531.25
2023-11-24T11:37:03.304Z,100527.81
2023-11-24T11:42:06.564Z,100532.25
2023-11-24T11:47:15.997Z,100517.50
2023-11-24T11:52:19.080Z,100512.91
2023-11-24T11:57:22.429Z,100497.56
2023-11-24T12:02:25.011Z,100497.56
2023-11-24T12:07:27.795Z,100472.06
2023-11-24T12:12:29.798Z,100472.75
2023-11-24T12:17:32.056Z,100466.47
2023-11-24T12:22:34.877Z,100496.63
2023-11-24T12:27:37.251Z,100477.16
2023-11-24T12:32:40.203Z,100479.78
2023-11-24T12:37:44.406Z,100485.09
2023-11-24T12:42:47.840Z,100480.88
2023-11-24T12:47:49.975Z,100468.16
2023-11-24T12:52:52.617Z,100463.72
2023-11-24T12:57:55.088Z,100458.59
2023-11-24T13:02:57.300Z,100471.06
2023-11-24T13:07:59.589Z,100468.47
2023-11-24T13:13:03.326Z,100461.47
2023-11-24T13:18:06.582Z,100452.44
2023-11-24T13:23:09.082Z,100451.72
2023-11-24T13:28:12.110Z,100450.56
2023-11-24T13:33:15.225Z,100455.88
2023-11-24T13:38:18.220Z,100461.31
2023-11-24T13:43:20.595Z,100460.75
2023-11-24T13:48:25.157Z,100454.38
2023-11-24T13:53:29.520Z,100468.53
2023-11-24T13:58:31.583Z,100470.34
2023-11-24T14:03:33.617Z,100442.91
2023-11-24T14:08:39.600Z,100430.34
2023-11-24T14:13:41.586Z,100437.66
2023-11-24T14:18:43.639Z,100437.66
2023-11-24T14:23:45.572Z,100418.78
2023-11-24T14:28:47.505Z,100430.72
2023-11-24T14:33:50.321Z,100426.81
2023-11-24T14:38:54.388Z,100426.00
2023-11-24T14:43:56.364Z,100432.22
2023-11-24T14:48:58.596Z,100468.63
2023-11-24T14:54:00.824Z,100442.97
2023-11-24T14:59:02.888Z,100443.13
2023-11-24T15:04:05.632Z,100439.72
2023-11-24T15:09:08.322Z,100462.59
2023-11-24T15:14:16.968Z,100463.63
2023-11-24T15:19:19.772Z,100465.41
2023-11-24T15:24:22.024Z,100459.16
2023-11-24T15:29:24.055Z,100453.75
2023-11-24T15:34:27.096Z,100451.44
2023-11-24T15:39:47.084Z,100450.22
2023-11-24T15:44:50.141Z,100457.34
2023-11-24T15:49:54.002Z,100470.59
2023-11-24T15:54:57.086Z,100463.38
2023-11-24T16:00:02.833Z,100461.75
2023-11-24T16:05:07.826Z,100480.34
2023-11-24T16:10:17.103Z,100470.53
2023-11-24T16:15:19.379Z,100454.13
2023-11-24T16:20:21.525Z,100449.78
2023-11-24T16:25:23.738Z,100454.41
2023-11-24T16:30:25.798Z,100464.94
2023-11-24T16:35:27.894Z,100472.03
2023-11-24T16:40:30.530Z,100478.25
2023-11-24T16:45:32.768Z,100482.69
2023-11-24T16:50:35.534Z,100475.38
2023-11-24T16:55:37.955Z,100473.00
2023-11-24T17:00:39.940Z,100475.03
2023-11-24T17:05:42.559Z,100483.69
2023-11-24T17:10:46.722Z,100477.34
2023-11-24T17:15:50.671Z,100489.09
2023-11-24T17:20:53.214Z,100475.75
2023-11-24T17:25:55.866Z,100473.53
2023-11-24T17:30:57.979Z,100479.84
2023-11-24T17:35:59.989Z,100483.81
2023-11-24T17:41:03.048Z,100480.19
2023-11-24T17:46:07.963Z,100481.94
2023-11-24T17:51:10.326Z,100477.22
2023-11-24T17:56:12.995Z,100460.31
2023-11-24T18:01:15.946Z,100476.28
2023-11-24T18:06:18.276Z,100458.59
2023-11-24T18:11:20.560Z,100458.38
2023-11-24T18:16:22.773Z,100489.31
2023-11-24T18:21:26.224Z,100478.72
2023-11-24T18:26:28.209Z,100483.06
2023-11-24T18:31:32.326Z,100484.81
2023-11-24T18:36:34.349Z,100487.47
2023-11-24T18:41:37.078Z,100463.69
2023-11-24T18:46:39.321Z,100456.31
2023-11-24T18:51:41.447Z,100456.72
2023-11-24T18:56:43.656Z,100464.47
2023-11-24T19:01:46.416Z,100477.66
2023-11-24T19:06:48.548Z,100472.34
2023-11-24T19:11:50.923Z,100477.53
2023-11-24T19:16:53.095Z,100480.28
2023-11-24T19:21:55.308Z,100481.09
2023-11-24T19:26:58.719Z,100481.09
2023-11-24T19:32:00.824Z,100489.94
2023-11-24T19:37:03.072Z,100470.34
2023-11-24T19:42:05.801Z,100472.16
2023-11-24T19:47:10.588Z,100462.53
2023-11-24T19:52:12.893Z,100461.31
2023-11-24T19:57:15.001Z,100453.94
2023-11-24T20:02:17.875Z,100458.44
2023-11-24T20:07:21.627Z,100462.06
2023-11-24T20:12:25.769Z,100480.59
2023-11-24T20:17:27.994Z,100474.22
2023-11-24T20:22:30.107Z,100485.06
2023-11-24T20:27:32.145Z,100482.41
2023-11-24T20:32:34.316Z,100486.50
2023-11-24T20:37:36.494Z,100478.50
2023-11-24T20:42:40.402Z,100480.53
2023-11-24T20:47:43.352Z,100501.44
2023-11-24T20:52:46.783Z,100483.09
2023-11-24T20:57:49.053Z,100471.94
2023-11-24T21:02:51.352Z,100472.66
2023-11-24T21:07:53.544Z,100502.88
2023-11-24T21:12:55.677Z,100554.75
2023-11-24T21:17:58.889Z,100555.28
2023-11-24T21:23:01.668Z,100540.84
2023-11-24T21:28:04.696Z,100548.50
2023-11-24T21:33:06.951Z,100547.88
2023-11-24T21:38:09.123Z,100539.75
2023-11-24T21:43:11.274Z,100539.72
2023-11-24T21:48:13.962Z,100541.50
2023-11-24T21:53:16.859Z,100550.31
2023-11-24T21:58:19.336Z,100550.44
2023-11-24T22:03:22.778Z,100554.75
2023-11-24T22:08:25.525Z,100558.19
2023-11-24T22:13:27.526Z,100563.19
2023-11-24T22:18:29.753Z,100558.19
2023-11-24T22:23:31.699Z,100554.31
2023-11-24T22:28:33.820Z,100562.50
2023-11-24T22:33:36.364Z,100562.41
2023-11-24T22:38:38.566Z,100581.16
2023-11-24T22:43:40.606Z,100590.84
2023-11-24T22:48:45.770Z,100594.53
2023-11-24T22:53:47.875Z,100594.34
2023-11-24T22:58:52.858Z,100603.09
2023-11-24T23:04:01.326Z,100597.28
2023-11-24T23:09:05.066Z,100606.88
2023-11-24T23:14:07.246Z,100600.66
2023-11-24T23:19:09.424Z,100614.94
2023-11-24T23:24:12.308Z,100623.69
2023-11-24T23:29:14.490Z,100625.53
2023-11-24T23:34:16.918Z,100634.41
2023-11-24T23:39:20.316Z,100624.75
2023-11-24T23:44:22.504Z,100626.38
2023-11-24T23:49:24.650Z,100629.25
2023-11-24T23:54:26.831Z,100643.16
2023-11-24T23:59:28.962Z,100651.16
